sensor_id;sensor_type;location;lat;lon;timestamp;temperature;humidity
70851;DHT22;58475;49.662;9.636;2024-01-30T00:01:08;-1.11;93.40
70851;DHT22;58475;49.662;9.636;2024-01-30T00:03:33;-1.17;94.03
70851;DHT22;58475;49.662;9.636;2024-01-30T00:05:58;-1.18;94.27
70851;DHT22;58475;49.662;9.636;2024-01-30T00:08:24;-1.27;94.56
70851;DHT22;58475;49.662;9.636;2024-01-30T00:10:49;-1.27;94.39
70851;DHT22;58475;49.662;9.636;2024-01-30T00:13:15;-1.28;94.70
70851;DHT22;58475;49.662;9.636;2024-01-30T00:15:42;-1.30;95.09
70851;DHT22;58475;49.662;9.636;2024-01-30T00:18:08;-1.23;95.25
70851;DHT22;58475;49.662;9.636;2024-01-30T00:20:33;-1.18;95.48
70851;DHT22;58475;49.662;9.636;2024-01-30T00:22:58;-1.13;95.34
70851;DHT22;58475;49.662;9.636;2024-01-30T00:25:24;-1.08;95.33
70851;DHT22;58475;49.662;9.636;2024-01-30T00:27:49;-1.11;95.25
70851;DHT22;58475;49.662;9.636;2024-01-30T00:30:14;-1.11;95.11
70851;DHT22;58475;49.662;9.636;2024-01-30T00:32:40;-1.11;95.02
70851;DHT22;58475;49.662;9.636;2024-01-30T00:35:05;-1.08;94.99
70851;DHT22;58475;49.662;9.636;2024-01-30T00:37:31;-1.13;94.80
70851;DHT22;58475;49.662;9.636;2024-01-30T00:39:56;-1.14;94.79
70851;DHT22;58475;49.662;9.636;2024-01-30T00:42:22;-1.13;94.49
70851;DHT22;58475;49.662;9.636;2024-01-30T00:44:49;-1.20;94.10
70851;DHT22;58475;49.662;9.636;2024-01-30T00:47:14;-1.21;94.35
70851;DHT22;58475;49.662;9.636;2024-01-30T00:49:40;-1.20;94.38
70851;DHT22;58475;49.662;9.636;2024-01-30T00:52:05;-1.20;94.24
70851;DHT22;58475;49.662;9.636;2024-01-30T00:54:31;-1.24;94.01
70851;DHT22;58475;49.662;9.636;2024-01-30T00:56:56;-1.31;94.16
70851;DHT22;58475;49.662;9.636;2024-01-30T00:59:22;-1.37;94.34
70851;DHT22;58475;49.662;9.636;2024-01-30T01:01:47;-1.38;94.61
70851;DHT22;58475;49.662;9.636;2024-01-30T01:04:12;-1.34;94.77
70851;DHT22;58475;49.662;9.636;2024-01-30T01:06:38;-1.30;94.54
70851;DHT22;58475;49.662;9.636;2024-01-30T01:09:03;-1.33;94.30
70851;DHT22;58475;49.662;9.636;2024-01-30T01:11:29;-1.31;94.16
70851;DHT22;58475;49.662;9.636;2024-01-30T01:13:54;-1.38;94.29
70851;DHT22;58475;49.662;9.636;2024-01-30T01:16:19;-1.34;94.15
70851;DHT22;58475;49.662;9.636;2024-01-30T01:18:45;-1.35;94.00
70851;DHT22;58475;49.662;9.636;2024-01-30T01:21:10;-1.38;94.59
70851;DHT22;58475;49.662;9.636;2024-01-30T01:23:36;-1.40;94.95
70851;DHT22;58475;49.662;9.636;2024-01-30T01:26:01;-1.37;94.95
70851;DHT22;58475;49.662;9.636;2024-01-30T01:28:26;-1.38;94.84
70851;DHT22;58475;49.662;9.636;2024-01-30T01:30:52;-1.35;94.81
70851;DHT22;58475;49.662;9.636;2024-01-30T01:33:17;-1.37;94.70
70851;DHT22;58475;49.662;9.636;2024-01-30T01:35:43;-1.40;94.91
70851;DHT22;58475;49.662;9.636;2024-01-30T01:38:08;-1.40;94.82
70851;DHT22;58475;49.662;9.636;2024-01-30T01:40:34;-1.35;94.80
70851;DHT22;58475;49.662;9.636;2024-01-30T01:43:03;-1.35;95.19
70851;DHT22;58475;49.662;9.636;2024-01-30T01:45:28;-1.34;95.06
70851;DHT22;58475;49.662;9.636;2024-01-30T01:47:54;-1.30;95.29
70851;DHT22;58475;49.662;9.636;2024-01-30T01:50:20;-1.27;94.93
70851;DHT22;58475;49.662;9.636;2024-01-30T01:52:50;-1.28;94.58
70851;DHT22;58475;49.662;9.636;2024-01-30T01:55:16;-1.33;94.36
70851;DHT22;58475;49.662;9.636;2024-01-30T01:57:44;-1.34;94.49
70851;DHT22;58475;49.662;9.636;2024-01-30T02:00:10;-1.35;94.55
70851;DHT22;58475;49.662;9.636;2024-01-30T02:02:36;-1.34;94.55
70851;DHT22;58475;49.662;9.636;2024-01-30T02:05:02;-1.40;94.72
70851;DHT22;58475;49.662;9.636;2024-01-30T02:07:28;-1.41;94.79
70851;DHT22;58475;49.662;9.636;2024-01-30T02:09:54;-1.41;94.79
70851;DHT22;58475;49.662;9.636;2024-01-30T02:12:20;-1.47;94.84
70851;DHT22;58475;49.662;9.636;2024-01-30T02:14:46;-1.45;94.89
70851;DHT22;58475;49.662;9.636;2024-01-30T02:17:12;-1.47;94.84
70851;DHT22;58475;49.662;9.636;2024-01-30T02:19:38;-1.47;94.75
70851;DHT22;58475;49.662;9.636;2024-01-30T02:22:04;-1.50;94.77
70851;DHT22;58475;49.662;9.636;2024-01-30T02:24:29;-1.54;95.10
70851;DHT22;58475;49.662;9.636;2024-01-30T02:26:55;-1.52;95.14
70851;DHT22;58475;49.662;9.636;2024-01-30T02:29:20;-1.48;95.14
70851;DHT22;58475;49.662;9.636;2024-01-30T02:31:46;-1.50;95.18
70851;DHT22;58475;49.662;9.636;2024-01-30T02:34:11;-1.52;95.30
70851;DHT22;58475;49.662;9.636;2024-01-30T02:36:37;-1.52;95.55
70851;DHT22;58475;49.662;9.636;2024-01-30T02:39:03;-1.52;95.67
70851;DHT22;58475;49.662;9.636;2024-01-30T02:41:28;-1.48;95.85
70851;DHT22;58475;49.662;9.636;2024-01-30T02:43:53;-1.45;95.97
70851;DHT22;58475;49.662;9.636;2024-01-30T02:46:19;-1.44;95.94
70851;DHT22;58475;49.662;9.636;2024-01-30T02:48:44;-1.40;95.83
70851;DHT22;58475;49.662;9.636;2024-01-30T02:51:09;-1.38;95.88
70851;DHT22;58475;49.662;9.636;2024-01-30T02:53:35;-1.34;95.88
70851;DHT22;58475;49.662;9.636;2024-01-30T02:56:02;-1.24;95.63
70851;DHT22;58475;49.662;9.636;2024-01-30T02:58:27;-1.24;95.56
70851;DHT22;58475;49.662;9.636;2024-01-30T03:00:53;-1.24;95.44
70851;DHT22;58475;49.662;9.636;2024-01-30T03:03:18;-1.21;95.33
70851;DHT22;58475;49.662;9.636;2024-01-30T03:05:43;-1.17;95.28
70851;DHT22;58475;49.662;9.636;2024-01-30T03:08:09;-1.18;95.16
70851;DHT22;58475;49.662;9.636;2024-01-30T03:10:34;-1.30;95.53
70851;DHT22;58475;49.662;9.636;2024-01-30T03:12:59;-1.26;95.58
70851;DHT22;58475;49.662;9.636;2024-01-30T03:15:25;-1.23;95.56
70851;DHT22;58475;49.662;9.636;2024-01-30T03:17:50;-1.23;95.57
70851;DHT22;58475;49.662;9.636;2024-01-30T03:20:16;-1.21;95.57
70851;DHT22;58475;49.662;9.636;2024-01-30T03:22:41;-1.23;95.79
70851;DHT22;58475;49.662;9.636;2024-01-30T03:25:07;-1.26;95.94
70851;DHT22;58475;49.662;9.636;2024-01-30T03:27:32;-1.24;95.97
70851;DHT22;58475;49.662;9.636;2024-01-30T03:29:57;-1.20;95.73
70851;DHT22;58475;49.662;9.636;2024-01-30T03:32:23;-1.26;95.96
70851;DHT22;58475;49.662;9.636;2024-01-30T03:34:48;-1.30;96.14
70851;DHT22;58475;49.662;9.636;2024-01-30T03:37:13;-1.38;96.40
70851;DHT22;58475;49.662;9.636;2024-01-30T03:39:39;-1.37;96.76
70851;DHT22;58475;49.662;9.636;2024-01-30T03:42:04;-1.30;96.67
70851;DHT22;58475;49.662;9.636;2024-01-30T03:44:29;-1.28;96.65
70851;DHT22;58475;49.662;9.636;2024-01-30T03:46:55;-1.28;96.64
70851;DHT22;58475;49.662;9.636;2024-01-30T03:49:20;-1.26;96.87
70851;DHT22;58475;49.662;9.636;2024-01-30T03:51:45;-1.24;96.85
70851;DHT22;58475;49.662;9.636;2024-01-30T03:54:12;-1.23;96.95
70851;DHT22;58475;49.662;9.636;2024-01-30T03:56:38;-1.26;96.95
70851;DHT22;58475;49.662;9.636;2024-01-30T03:59:03;-1.26;97.16
70851;DHT22;58475;49.662;9.636;2024-01-30T04:01:29;-1.24;97.27
70851;DHT22;58475;49.662;9.636;2024-01-30T04:03:54;-1.24;97.16
70851;DHT22;58475;49.662;9.636;2024-01-30T04:06:19;-1.14;97.04
70851;DHT22;58475;49.662;9.636;2024-01-30T04:08:45;-1.20;97.05
70851;DHT22;58475;49.662;9.636;2024-01-30T04:11:10;-1.18;97.14
70851;DHT22;58475;49.662;9.636;2024-01-30T04:13:35;-1.18;97.21
70851;DHT22;58475;49.662;9.636;2024-01-30T04:16:01;-1.21;97.31
70851;DHT22;58475;49.662;9.636;2024-01-30T04:18:27;-1.21;97.62
70851;DHT22;58475;49.662;9.636;2024-01-30T04:20:53;-1.17;97.54
70851;DHT22;58475;49.662;9.636;2024-01-30T04:23:18;-1.20;97.71
70851;DHT22;58475;49.662;9.636;2024-01-30T04:25:43;-1.17;97.71
70851;DHT22;58475;49.662;9.636;2024-01-30T04:28:10;-1.14;97.50
70851;DHT22;58475;49.662;9.636;2024-01-30T04:30:37;-1.18;97.42
70851;DHT22;58475;49.662;9.636;2024-01-30T04:33:03;-1.20;97.42
70851;DHT22;58475;49.662;9.636;2024-01-30T04:35:28;-1.17;97.36
70851;DHT22;58475;49.662;9.636;2024-01-30T04:37:54;-1.16;97.48
70851;DHT22;58475;49.662;9.636;2024-01-30T04:40:20;-1.17;97.49
70851;DHT22;58475;49.662;9.636;2024-01-30T04:42:46;-1.16;97.26
70851;DHT22;58475;49.662;9.636;2024-01-30T04:45:11;-1.18;97.43
70851;DHT22;58475;49.662;9.636;2024-01-30T04:47:37;-1.21;97.39
70851;DHT22;58475;49.662;9.636;2024-01-30T04:50:02;-1.17;97.54
70851;DHT22;58475;49.662;9.636;2024-01-30T04:52:30;-1.21;97.39
70851;DHT22;58475;49.662;9.636;2024-01-30T04:54:55;-1.21;97.47
70851;DHT22;58475;49.662;9.636;2024-01-30T04:57:20;-1.18;97.35
70851;DHT22;58475;49.662;9.636;2024-01-30T04:59:46;-1.24;97.45
70851;DHT22;58475;49.662;9.636;2024-01-30T05:02:11;-1.28;97.84
70851;DHT22;58475;49.662;9.636;2024-01-30T05:04:36;-1.30;97.86
70851;DHT22;58475;49.662;9.636;2024-01-30T05:07:02;-1.24;97.69
70851;DHT22;58475;49.662;9.636;2024-01-30T05:09:27;-1.26;97.51
70851;DHT22;58475;49.662;9.636;2024-01-30T05:11:53;-1.23;97.47
70851;DHT22;58475;49.662;9.636;2024-01-30T05:14:19;-1.27;97.60
70851;DHT22;58475;49.662;9.636;2024-01-30T05:16:44;-1.27;97.77
70851;DHT22;58475;49.662;9.636;2024-01-30T05:19:15;-1.23;97.78
70851;DHT22;58475;49.662;9.636;2024-01-30T05:21:41;-1.20;97.41
70851;DHT22;58475;49.662;9.636;2024-01-30T05:24:06;-1.26;97.89
70851;DHT22;58475;49.662;9.636;2024-01-30T05:26:32;-1.21;97.89
70851;DHT22;58475;49.662;9.636;2024-01-30T05:28:57;-1.26;97.65
70851;DHT22;58475;49.662;9.636;2024-01-30T05:31:23;-1.24;98.07
70851;DHT22;58475;49.662;9.636;2024-01-30T05:33:51;-1.24;98.00
70851;DHT22;58475;49.662;9.636;2024-01-30T05:36:16;-1.26;97.88
70851;DHT22;58475;49.662;9.636;2024-01-30T05:38:42;-1.21;97.73
70851;DHT22;58475;49.662;9.636;2024-01-30T05:41:08;-1.18;97.65
70851;DHT22;58475;49.662;9.636;2024-01-30T05:43:33;-1.17;97.28
70851;DHT22;58475;49.662;9.636;2024-01-30T05:45:58;-1.24;97.38
70851;DHT22;58475;49.662;9.636;2024-01-30T05:48:24;-1.33;97.80
70851;DHT22;58475;49.662;9.636;2024-01-30T05:50:49;-1.23;97.63
70851;DHT22;58475;49.662;9.636;2024-01-30T05:53:14;-1.28;97.62
70851;DHT22;58475;49.662;9.636;2024-01-30T05:55:40;-1.31;97.87
70851;DHT22;58475;49.662;9.636;2024-01-30T05:58:06;-1.34;97.95
70851;DHT22;58475;49.662;9.636;2024-01-30T06:00:31;-1.33;97.90
70851;DHT22;58475;49.662;9.636;2024-01-30T06:02:56;-1.40;97.82
70851;DHT22;58475;49.662;9.636;2024-01-30T06:05:22;-1.44;97.98
70851;DHT22;58475;49.662;9.636;2024-01-30T06:07:47;-1.47;98.22
70851;DHT22;58475;49.662;9.636;2024-01-30T06:10:12;-1.38;97.94
70851;DHT22;58475;49.662;9.636;2024-01-30T06:12:38;-1.50;98.18
70851;DHT22;58475;49.662;9.636;2024-01-30T06:15:04;-1.35;98.00
70851;DHT22;58475;49.662;9.636;2024-01-30T06:17:29;-1.38;97.68
70851;DHT22;58475;49.662;9.636;2024-01-30T06:19:54;-1.37;97.62
70851;DHT22;58475;49.662;9.636;2024-01-30T06:22:20;-1.41;97.44
70851;DHT22;58475;49.662;9.636;2024-01-30T06:24:45;-1.34;97.24
70851;DHT22;58475;49.662;9.636;2024-01-30T06:27:13;-1.44;97.22
70851;DHT22;58475;49.662;9.636;2024-01-30T06:29:38;-1.47;97.67
70851;DHT22;58475;49.662;9.636;2024-01-30T06:32:04;-1.47;97.65
70851;DHT22;58475;49.662;9.636;2024-01-30T06:34:29;-1.45;97.74
70851;DHT22;58475;49.662;9.636;2024-01-30T06:36:55;-1.41;97.57
70851;DHT22;58475;49.662;9.636;2024-01-30T06:39:20;-1.40;97.52
70851;DHT22;58475;49.662;9.636;2024-01-30T06:41:46;-1.37;97.29
70851;DHT22;58475;49.662;9.636;2024-01-30T06:44:12;-1.44;97.56
70851;DHT22;58475;49.662;9.636;2024-01-30T06:46:38;-1.41;97.53
70851;DHT22;58475;49.662;9.636;2024-01-30T06:49:03;-1.43;97.36
70851;DHT22;58475;49.662;9.636;2024-01-30T06:51:29;-1.52;97.25
70851;DHT22;58475;49.662;9.636;2024-01-30T06:53:54;-1.47;97.48
70851;DHT22;58475;49.662;9.636;2024-01-30T06:56:19;-1.47;97.46
70851;DHT22;58475;49.662;9.636;2024-01-30T06:58:52;-1.48;97.60
70851;DHT22;58475;49.662;9.636;2024-01-30T07:01:17;-1.52;97.81
70851;DHT22;58475;49.662;9.636;2024-01-30T07:03:43;-1.57;97.81
70851;DHT22;58475;49.662;9.636;2024-01-30T07:06:09;-1.51;97.95
70851;DHT22;58475;49.662;9.636;2024-01-30T07:08:36;-1.34;97.47
70851;DHT22;58475;49.662;9.636;2024-01-30T07:11:02;-1.41;96.94
70851;DHT22;58475;49.662;9.636;2024-01-30T07:13:28;-1.55;97.35
70851;DHT22;58475;49.662;9.636;2024-01-30T07:15:54;-1.51;97.58
70851;DHT22;58475;49.662;9.636;2024-01-30T07:18:19;-1.44;97.53
70851;DHT22;58475;49.662;9.636;2024-01-30T07:20:44;-1.43;97.35
70851;DHT22;58475;49.662;9.636;2024-01-30T07:23:15;-1.43;97.52
70851;DHT22;58475;49.662;9.636;2024-01-30T07:25:45;-1.34;97.39
70851;DHT22;58475;49.662;9.636;2024-01-30T07:28:11;-1.38;97.32
70851;DHT22;58475;49.662;9.636;2024-01-30T07:30:42;-1.40;97.32
70851;DHT22;58475;49.662;9.636;2024-01-30T07:33:07;-1.31;97.16
70851;DHT22;58475;49.662;9.636;2024-01-30T07:35:34;-1.30;96.76
70851;DHT22;58475;49.662;9.636;2024-01-30T07:37:59;-1.38;97.00
70851;DHT22;58475;49.662;9.636;2024-01-30T07:40:25;-1.38;97.17
70851;DHT22;58475;49.662;9.636;2024-01-30T07:42:50;-1.28;96.75
70851;DHT22;58475;49.662;9.636;2024-01-30T07:45:16;-1.31;96.50
70851;DHT22;58475;49.662;9.636;2024-01-30T07:47:41;-1.38;96.45
70851;DHT22;58475;49.662;9.636;2024-01-30T07:50:08;-1.44;96.37
70851;DHT22;58475;49.662;9.636;2024-01-30T07:52:33;-1.51;96.94
70851;DHT22;58475;49.662;9.636;2024-01-30T07:54:59;-1.54;96.76
70851;DHT22;58475;49.662;9.636;2024-01-30T07:57:24;-1.48;97.14
70851;DHT22;58475;49.662;9.636;2024-01-30T07:59:50;-1.40;97.37
70851;DHT22;58475;49.662;9.636;2024-01-30T08:02:15;-1.33;97.23
70851;DHT22;58475;49.662;9.636;2024-01-30T08:04:41;-1.23;96.91
70851;DHT22;58475;49.662;9.636;2024-01-30T08:07:06;-1.23;96.62
70851;DHT22;58475;49.662;9.636;2024-01-30T08:09:32;-1.23;96.88
70851;DHT22;58475;49.662;9.636;2024-01-30T08:11:57;-1.16;97.10
70851;DHT22;58475;49.662;9.636;2024-01-30T08:14:23;-1.07;96.90
70851;DHT22;58475;49.662;9.636;2024-01-30T08:16:48;-1.01;96.35
70851;DHT22;58475;49.662;9.636;2024-01-30T08:19:15;-1.00;96.67
70851;DHT22;58475;49.662;9.636;2024-01-30T08:21:40;-0.96;96.59
70851;DHT22;58475;49.662;9.636;2024-01-30T08:24:06;-0.95;96.15
70851;DHT22;58475;49.662;9.636;2024-01-30T08:26:32;-0.89;96.02
70851;DHT22;58475;49.662;9.636;2024-01-30T08:28:58;-0.80;95.80
70851;DHT22;58475;49.662;9.636;2024-01-30T08:31:24;-0.75;95.74
70851;DHT22;58475;49.662;9.636;2024-01-30T08:33:49;-0.68;95.73
70851;DHT22;58475;49.662;9.636;2024-01-30T08:36:16;-0.54;95.49
70851;DHT22;58475;49.662;9.636;2024-01-30T08:38:41;-0.41;94.88
70851;DHT22;58475;49.662;9.636;2024-01-30T08:41:07;-0.24;94.56
70851;DHT22;58475;49.662;9.636;2024-01-30T08:43:33;0.00;93.97
70851;DHT22;58475;49.662;9.636;2024-01-30T08:46:01;0.37;92.75
70851;DHT22;58475;49.662;9.636;2024-01-30T08:48:27;0.62;91.78
70851;DHT22;58475;49.662;9.636;2024-01-30T08:50:53;0.92;91.52
70851;DHT22;58475;49.662;9.636;2024-01-30T08:53:18;0.95;90.53
70851;DHT22;58475;49.662;9.636;2024-01-30T08:55:44;1.05;90.21
70851;DHT22;58475;49.662;9.636;2024-01-30T08:58:10;1.05;90.09
70851;DHT22;58475;49.662;9.636;2024-01-30T09:00:35;1.17;89.52
70851;DHT22;58475;49.662;9.636;2024-01-30T09:03:00;1.29;88.58
70851;DHT22;58475;49.662;9.636;2024-01-30T09:05:26;1.40;88.62
70851;DHT22;58475;49.662;9.636;2024-01-30T09:07:51;1.54;88.45
70851;DHT22;58475;49.662;9.636;2024-01-30T09:10:16;1.70;88.04
70851;DHT22;58475;49.662;9.636;2024-01-30T09:12:42;1.94;88.14
70851;DHT22;58475;49.662;9.636;2024-01-30T09:15:08;1.81;87.82
70851;DHT22;58475;49.662;9.636;2024-01-30T09:17:34;1.97;87.50
70851;DHT22;58475;49.662;9.636;2024-01-30T09:19:59;1.79;87.86
70851;DHT22;58475;49.662;9.636;2024-01-30T09:22:25;1.70;87.46
70851;DHT22;58475;49.662;9.636;2024-01-30T09:24:50;1.75;88.17
70851;DHT22;58475;49.662;9.636;2024-01-30T09:27:16;1.84;88.37
70851;DHT22;58475;49.662;9.636;2024-01-30T09:29:41;1.94;88.00
70851;DHT22;58475;49.662;9.636;2024-01-30T09:32:06;1.99;88.25
70851;DHT22;58475;49.662;9.636;2024-01-30T09:34:32;2.15;88.19
70851;DHT22;58475;49.662;9.636;2024-01-30T09:36:59;2.18;86.99
70851;DHT22;58475;49.662;9.636;2024-01-30T09:39:25;2.25;86.53
70851;DHT22;58475;49.662;9.636;2024-01-30T09:42:09;2.36;87.03
70851;DHT22;58475;49.662;9.636;2024-01-30T09:44:37;2.43;87.38
70851;DHT22;58475;49.662;9.636;2024-01-30T09:47:03;2.39;85.60
70851;DHT22;58475;49.662;9.636;2024-01-30T09:49:34;2.39;87.03
70851;DHT22;58475;49.662;9.636;2024-01-30T09:52:03;2.32;87.05
70851;DHT22;58475;49.662;9.636;2024-01-30T09:54:30;2.44;86.32
70851;DHT22;58475;49.662;9.636;2024-01-30T09:56:57;2.35;87.48
70851;DHT22;58475;49.662;9.636;2024-01-30T09:59:22;2.37;87.48
70851;DHT22;58475;49.662;9.636;2024-01-30T10:01:48;2.25;87.78
70851;DHT22;58475;49.662;9.636;2024-01-30T10:04:14;2.43;87.89
70851;DHT22;58475;49.662;9.636;2024-01-30T10:06:40;2.49;87.94
70851;DHT22;58475;49.662;9.636;2024-01-30T10:09:05;2.47;87.86
70851;DHT22;58475;49.662;9.636;2024-01-30T10:11:31;2.50;88.34
70851;DHT22;58475;49.662;9.636;2024-01-30T10:13:56;2.54;88.19
70851;DHT22;58475;49.662;9.636;2024-01-30T10:16:21;2.68;87.60
70851;DHT22;58475;49.662;9.636;2024-01-30T10:18:47;2.76;88.03
70851;DHT22;58475;49.662;9.636;2024-01-30T10:21:12;2.61;87.77
70851;DHT22;58475;49.662;9.636;2024-01-30T10:23:38;2.83;87.97
70851;DHT22;58475;49.662;9.636;2024-01-30T10:26:04;2.83;87.45
70851;DHT22;58475;49.662;9.636;2024-01-30T10:28:29;2.77;87.19
70851;DHT22;58475;49.662;9.636;2024-01-30T10:31:02;2.73;87.08
70851;DHT22;58475;49.662;9.636;2024-01-30T10:33:29;2.83;87.29
70851;DHT22;58475;49.662;9.636;2024-01-30T10:36:01;2.93;86.50
70851;DHT22;58475;49.662;9.636;2024-01-30T10:38:29;2.98;87.74
70851;DHT22;58475;49.662;9.636;2024-01-30T10:40:56;3.11;87.88
70851;DHT22;58475;49.662;9.636;2024-01-30T10:43:22;3.05;87.74
70851;DHT22;58475;49.662;9.636;2024-01-30T10:45:50;3.12;87.68
70851;DHT22;58475;49.662;9.636;2024-01-30T10:48:18;3.19;87.06
70851;DHT22;58475;49.662;9.636;2024-01-30T10:50:45;3.39;86.64
70851;DHT22;58475;49.662;9.636;2024-01-30T10:53:10;3.40;86.86
70851;DHT22;58475;49.662;9.636;2024-01-30T10:55:38;3.36;86.00
70851;DHT22;58475;49.662;9.636;2024-01-30T10:58:04;3.32;85.92
70851;DHT22;58475;49.662;9.636;2024-01-30T11:00:30;3.21;86.73
70851;DHT22;58475;49.662;9.636;2024-01-30T11:02:58;3.28;86.96
70851;DHT22;58475;49.662;9.636;2024-01-30T11:05:24;3.46;87.10
70851;DHT22;58475;49.662;9.636;2024-01-30T11:07:51;3.72;86.95
70851;DHT22;58475;49.662;9.636;2024-01-30T11:10:17;3.98;86.43
70851;DHT22;58475;49.662;9.636;2024-01-30T11:12:42;4.22;85.47
70851;DHT22;58475;49.662;9.636;2024-01-30T11:15:10;4.42;84.79
70851;DHT22;58475;49.662;9.636;2024-01-30T11:17:42;4.89;83.48
70851;DHT22;58475;49.662;9.636;2024-01-30T11:20:27;5.33;84.28
70851;DHT22;58475;49.662;9.636;2024-01-30T11:22:57;5.47;81.92
70851;DHT22;58475;49.662;9.636;2024-01-30T11:25:23;5.62;83.00
70851;DHT22;58475;49.662;9.636;2024-01-30T11:27:50;5.99;80.70
70851;DHT22;58475;49.662;9.636;2024-01-30T11:30:26;6.17;80.61
70851;DHT22;58475;49.662;9.636;2024-01-30T11:35:25;6.19;81.43
70851;DHT22;58475;49.662;9.636;2024-01-30T11:37:51;6.37;80.78
70851;DHT22;58475;49.662;9.636;2024-01-30T11:40:16;6.53;81.00
70851;DHT22;58475;49.662;9.636;2024-01-30T11:42:42;6.53;80.75
70851;DHT22;58475;49.662;9.636;2024-01-30T11:45:08;6.50;79.30
70851;DHT22;58475;49.662;9.636;2024-01-30T11:47:35;6.14;79.58
70851;DHT22;58475;49.662;9.636;2024-01-30T11:50:01;5.78;80.97
70851;DHT22;58475;49.662;9.636;2024-01-30T11:52:29;5.82;81.42
70851;DHT22;58475;49.662;9.636;2024-01-30T11:54:54;5.76;81.54
70851;DHT22;58475;49.662;9.636;2024-01-30T11:57:19;5.68;82.53
70851;DHT22;58475;49.662;9.636;2024-01-30T11:59:45;5.91;82.36
70851;DHT22;58475;49.662;9.636;2024-01-30T12:02:15;5.95;82.35
70851;DHT22;58475;49.662;9.636;2024-01-30T12:04:41;5.98;82.00
70851;DHT22;58475;49.662;9.636;2024-01-30T12:07:06;6.19;81.69
70851;DHT22;58475;49.662;9.636;2024-01-30T12:09:32;6.36;81.13
70851;DHT22;58475;49.662;9.636;2024-01-30T12:11:57;6.48;80.37
70851;DHT22;58475;49.662;9.636;2024-01-30T12:14:23;6.73;80.68
70851;DHT22;58475;49.662;9.636;2024-01-30T12:16:50;6.87;80.26
70851;DHT22;58475;49.662;9.636;2024-01-30T12:19:24;6.96;80.01
70851;DHT22;58475;49.662;9.636;2024-01-30T12:21:54;7.23;79.08
70851;DHT22;58475;49.662;9.636;2024-01-30T12:24:21;7.42;78.99
70851;DHT22;58475;49.662;9.636;2024-01-30T12:26:47;7.50;78.34
70851;DHT22;58475;49.662;9.636;2024-01-30T12:29:14;7.43;78.15
70851;DHT22;58475;49.662;9.636;2024-01-30T12:31:42;7.26;79.01
70851;DHT22;58475;49.662;9.636;2024-01-30T12:34:07;7.23;78.94
70851;DHT22;58475;49.662;9.636;2024-01-30T12:36:33;6.92;79.86
70851;DHT22;58475;49.662;9.636;2024-01-30T12:39:00;6.68;80.45
70851;DHT22;58475;49.662;9.636;2024-01-30T12:41:26;6.81;80.31
70851;DHT22;58475;49.662;9.636;2024-01-30T12:43:55;6.87;80.71
70851;DHT22;58475;49.662;9.636;2024-01-30T12:46:25;6.88;80.72
70851;DHT22;58475;49.662;9.636;2024-01-30T12:48:51;6.95;81.23
70851;DHT22;58475;49.662;9.636;2024-01-30T12:51:16;6.88;81.38
70851;DHT22;58475;49.662;9.636;2024-01-30T12:53:41;7.02;81.32
70851;DHT22;58475;49.662;9.636;2024-01-30T12:56:07;6.85;80.72
70851;DHT22;58475;49.662;9.636;2024-01-30T12:58:33;6.82;81.51
70851;DHT22;58475;49.662;9.636;2024-01-30T13:00:58;6.80;81.31
70851;DHT22;58475;49.662;9.636;2024-01-30T13:03:24;6.84;81.69
70851;DHT22;58475;49.662;9.636;2024-01-30T13:05:49;6.75;83.02
70851;DHT22;58475;49.662;9.636;2024-01-30T13:08:15;6.89;82.11
70851;DHT22;58475;49.662;9.636;2024-01-30T13:10:40;6.96;81.58
70851;DHT22;58475;49.662;9.636;2024-01-30T13:13:05;6.91;81.53
70851;DHT22;58475;49.662;9.636;2024-01-30T13:15:31;6.73;82.43
70851;DHT22;58475;49.662;9.636;2024-01-30T13:17:56;6.58;82.95
70851;DHT22;58475;49.662;9.636;2024-01-30T13:20:21;6.60;83.26
70851;DHT22;58475;49.662;9.636;2024-01-30T13:22:47;6.61;83.80
70851;DHT22;58475;49.662;9.636;2024-01-30T13:25:14;6.73;84.01
70851;DHT22;58475;49.662;9.636;2024-01-30T13:27:40;6.80;83.23
70851;DHT22;58475;49.662;9.636;2024-01-30T13:30:07;6.92;83.39
70851;DHT22;58475;49.662;9.636;2024-01-30T13:32:33;7.08;82.66
70851;DHT22;58475;49.662;9.636;2024-01-30T13:34:58;7.29;82.55
70851;DHT22;58475;49.662;9.636;2024-01-30T13:37:23;7.50;82.26
70851;DHT22;58475;49.662;9.636;2024-01-30T13:39:49;7.62;80.84
70851;DHT22;58475;49.662;9.636;2024-01-30T13:42:14;7.83;80.84
70851;DHT22;58475;49.662;9.636;2024-01-30T13:44:39;8.01;80.76
70851;DHT22;58475;49.662;9.636;2024-01-30T13:47:05;8.12;80.08
70851;DHT22;58475;49.662;9.636;2024-01-30T13:49:31;8.20;79.46
70851;DHT22;58475;49.662;9.636;2024-01-30T13:51:56;8.05;79.93
70851;DHT22;58475;49.662;9.636;2024-01-30T13:54:21;7.97;80.03
70851;DHT22;58475;49.662;9.636;2024-01-30T13:56:47;8.02;80.20
70851;DHT22;58475;49.662;9.636;2024-01-30T13:59:12;7.75;80.72
70851;DHT22;58475;49.662;9.636;2024-01-30T14:01:38;7.69;80.70
70851;DHT22;58475;49.662;9.636;2024-01-30T14:04:03;7.54;81.53
70851;DHT22;58475;49.662;9.636;2024-01-30T14:06:28;7.53;81.64
70851;DHT22;58475;49.662;9.636;2024-01-30T14:08:54;7.36;82.38
70851;DHT22;58475;49.662;9.636;2024-01-30T14:11:20;7.36;82.71
70851;DHT22;58475;49.662;9.636;2024-01-30T14:13:45;7.37;82.85
70851;DHT22;58475;49.662;9.636;2024-01-30T14:16:10;7.30;82.99
70851;DHT22;58475;49.662;9.636;2024-01-30T14:18:37;7.06;83.77
70851;DHT22;58475;49.662;9.636;2024-01-30T14:21:02;7.01;83.97
70851;DHT22;58475;49.662;9.636;2024-01-30T14:23:27;7.01;84.15
70851;DHT22;58475;49.662;9.636;2024-01-30T14:25:53;6.98;84.25
70851;DHT22;58475;49.662;9.636;2024-01-30T14:28:18;7.08;84.13
70851;DHT22;58475;49.662;9.636;2024-01-30T14:30:44;7.23;83.49
70851;DHT22;58475;49.662;9.636;2024-01-30T14:33:09;7.12;83.65
70851;DHT22;58475;49.662;9.636;2024-01-30T14:35:34;7.19;83.34
70851;DHT22;58475;49.662;9.636;2024-01-30T14:38:00;7.25;82.83
70851;DHT22;58475;49.662;9.636;2024-01-30T14:40:26;7.06;84.37
70851;DHT22;58475;49.662;9.636;2024-01-30T14:42:51;7.27;83.69
70851;DHT22;58475;49.662;9.636;2024-01-30T14:45:17;7.15;84.07
70851;DHT22;58475;49.662;9.636;2024-01-30T14:47:43;7.18;83.66
70851;DHT22;58475;49.662;9.636;2024-01-30T14:50:08;7.18;83.55
70851;DHT22;58475;49.662;9.636;2024-01-30T14:52:34;6.99;83.93
70851;DHT22;58475;49.662;9.636;2024-01-30T14:55:00;7.03;83.79
70851;DHT22;58475;49.662;9.636;2024-01-30T14:57:25;7.05;83.79
70851;DHT22;58475;49.662;9.636;2024-01-30T14:59:51;7.02;83.71
70851;DHT22;58475;49.662;9.636;2024-01-30T15:02:16;6.94;83.86
70851;DHT22;58475;49.662;9.636;2024-01-30T15:04:41;6.85;83.87
70851;DHT22;58475;49.662;9.636;2024-01-30T15:07:07;6.73;84.52
70851;DHT22;58475;49.662;9.636;2024-01-30T15:09:32;6.70;84.49
70851;DHT22;58475;49.662;9.636;2024-01-30T15:11:58;6.54;85.05
70851;DHT22;58475;49.662;9.636;2024-01-30T15:14:23;6.47;85.62
70851;DHT22;58475;49.662;9.636;2024-01-30T15:16:49;6.57;86.10
70851;DHT22;58475;49.662;9.636;2024-01-30T15:19:15;6.63;86.31
70851;DHT22;58475;49.662;9.636;2024-01-30T15:21:40;6.67;86.41
70851;DHT22;58475;49.662;9.636;2024-01-30T15:24:06;6.68;86.00
70851;DHT22;58475;49.662;9.636;2024-01-30T15:26:31;6.70;86.07
70851;DHT22;58475;49.662;9.636;2024-01-30T15:28:56;6.58;86.06
70851;DHT22;58475;49.662;9.636;2024-01-30T15:31:22;6.44;86.11